Arezzo, Italy

10:39 PM CET on December 18, 2014 (GMT +0100)
S.Giuliano | Change Station
CLOSE
Current Station
Personal Weather Station
Location: Arezzo, AREZZO
Elevation: 850 ft
Nearby Weather Stations

Elev 850 ft 43.45 °N, 11.80 °E | Updated 8 minutes ago

Clear
Clear
41.7 °F
Feels Like 42 °F
N
0.4
Wind Variable Wind from SW
Gusts 0.9 mph

Today
High -- | Low -- °F
--% Chance of Precip.
Yesterday
High -- | Low -- °F
Precip. -- in
7:40 AM 4:37 PM
Waning Crescent, 12% visible
Pressure 30.21 in
Visibility 5.0 miles
Clouds
Windchill 42 °F
Dew Point 41 °F
Humidity 96%
Rainfall 0.06 in
Snow Depth Not available.
UV Not available.
Pollen Not available.
Air Quality Not available.
Flu Activity Not available.
METAR LIRQ 182120Z 00000KT 8000 NSC 07/07 Q1023

More Conditions Fewer Conditions

Pressure 30.21 in
Visibility 5.0 miles
Clouds
Windchill 42 °F
Dew Point 41 °F
Humidity 96%
Rainfall 0.06 in
Snow Depth Not available.
UV Not available.
Pollen Not available.
Air Quality Not available.
Flu Activity Not available.
METAR LIRQ 182120Z 00000KT 8000 NSC 07/07 Q1023

More Conditions Fewer Conditions

10-Day Weather Forecast

Almanac

Astronomy

Dec. 18, 2014 Rise Set
Actual Time
Civil Twilight
Nautical Twilight
Astronomical Twilight
Moon
Length of Visible Light
Length of Day
Tomorrow will be .
, % of the Moon is Illuminated

Today's Extremes

Country Highs Country Lows

Community

WunderPhotos

Upload Photos

1,779,000 photos uploaded!

WunderBlogs® & News

Nearby

Air Quality

  Air Quality AQ Index Pollutant
Not available.

Snow Depth

Station Depth Elevation

Earthquake Activity

City Distance Mag. Time & Date
Minimum magnitude displayed is 2.5.

Coastal Water Temperatures

Place Temperature

Nearby Weather Stations